createdAt,value
2018-11-21T00:00:33.490Z,85.22
2018-11-21T00:01:38.363Z,85.21
2018-11-21T00:02:42.441Z,85.18
2018-11-21T00:03:46.730Z,85.17
2018-11-21T00:04:51.160Z,85.15
2018-11-21T00:05:55.613Z,85.12
2018-11-21T00:07:00.160Z,85.12
2018-11-21T00:08:05.047Z,85.09
2018-11-21T00:09:11.835Z,85.09
2018-11-21T00:10:15.048Z,85.09
2018-11-21T00:11:19.189Z,85.08
2018-11-21T00:12:23.779Z,85.11
2018-11-21T00:13:27.914Z,85.13
2018-11-21T00:14:32.477Z,85.12
2018-11-21T00:15:36.764Z,85.08
2018-11-21T00:16:42.467Z,85.09
2018-11-21T00:17:49.947Z,85.06
2018-11-21T00:19:00.673Z,85.05
2018-11-21T00:19:59.621Z,85.03
2018-11-21T00:21:04.427Z,85.01
2018-11-21T00:22:08.696Z,84.99
2018-11-21T00:23:12.890Z,84.97
2018-11-21T00:24:17.054Z,84.98
2018-11-21T00:25:21.275Z,84.91
2018-11-21T00:26:25.979Z,84.88
2018-11-21T00:27:30.485Z,84.86
2018-11-21T00:28:34.580Z,84.84
2018-11-21T00:29:38.692Z,84.83
2018-11-21T00:30:42.813Z,84.79
2018-11-21T00:31:47.002Z,84.79
2018-11-21T00:32:51.107Z,84.74
2018-11-21T00:33:55.947Z,84.70
2018-11-21T00:35:02.908Z,84.71
2018-11-21T00:36:07.142Z,84.73
2018-11-21T00:37:11.303Z,84.71
2018-11-21T00:38:15.484Z,84.69
2018-11-21T00:39:19.918Z,84.65
2018-11-21T00:40:24.409Z,84.65
2018-11-21T00:41:29.043Z,84.63
2018-11-21T00:42:33.606Z,84.56
2018-11-21T00:43:40.777Z,84.58
2018-11-21T00:44:45.078Z,84.56
2018-11-21T00:45:49.181Z,84.58
2018-11-21T00:46:53.759Z,84.59
2018-11-21T00:47:57.855Z,84.52
2018-11-21T00:49:02.358Z,84.54
2018-11-21T00:50:06.677Z,84.51
2018-11-21T00:51:10.811Z,84.50
2018-11-21T00:52:15.266Z,84.48
2018-11-21T00:53:20.214Z,84.46
2018-11-21T00:54:24.341Z,84.41
2018-11-21T00:55:29.833Z,84.40
2018-11-21T00:56:34.015Z,84.39
2018-11-21T00:57:39.349Z,84.40
2018-11-21T00:58:44.028Z,84.41
2018-11-21T00:59:49.393Z,84.44
2018-11-21T01:00:57.309Z,84.41
2018-11-21T01:02:01.399Z,84.42
2018-11-21T01:03:08.039Z,84.33
2018-11-21T01:04:12.253Z,84.30
2018-11-21T01:05:16.369Z,84.31
2018-11-21T01:06:20.865Z,84.29
2018-11-21T01:07:24.966Z,84.27
2018-11-21T01:08:29.066Z,84.27
2018-11-21T01:09:33.263Z,84.27
2018-11-21T01:10:37.396Z,84.26
2018-11-21T01:11:41.815Z,84.21
2018-11-21T01:12:47.206Z,84.22
2018-11-21T01:13:52.345Z,84.21
2018-11-21T01:14:56.521Z,84.19
2018-11-21T01:16:00.615Z,84.16
2018-11-21T01:17:05.324Z,84.16
2018-11-21T01:18:09.482Z,84.16
2018-11-21T01:19:13.859Z,84.11
2018-11-21T01:20:18.026Z,84.11
2018-11-21T01:21:22.462Z,84.07
2018-11-21T01:22:26.562Z,84.03
2018-11-21T01:23:30.655Z,84.04
2018-11-21T01:24:35.297Z,84.04
2018-11-21T01:25:39.822Z,84.02
2018-11-21T01:26:44.256Z,84.04
2018-11-21T01:27:48.358Z,84.06
2018-11-21T01:28:52.819Z,84.09
2018-11-21T01:29:56.934Z,84.05
2018-11-21T01:31:03.968Z,84.02
2018-11-21T01:32:08.377Z,84.03
2018-11-21T01:33:13.429Z,83.99
2018-11-21T01:34:17.646Z,84.06
2018-11-21T01:35:21.794Z,84.06
2018-11-21T01:36:26.464Z,84.05
2018-11-21T01:37:30.576Z,84.04
2018-11-21T01:38:36.817Z,84.06
2018-11-21T01:39:41.366Z,84.08
2018-11-21T01:40:46.145Z,84.10
2018-11-21T01:42:55.104Z,84.06
2018-11-21T01:43:59.217Z,84.07
2018-11-21T01:45:04.027Z,84.05
2018-11-21T01:46:08.929Z,84.07
2018-11-21T01:47:13.084Z,84.05
2018-11-21T01:48:18.118Z,84.15
2018-11-21T01:49:22.538Z,84.16
2018-11-21T01:50:28.087Z,84.17
2018-11-21T01:51:34.058Z,84.22
2018-11-21T01:52:39.047Z,84.17
2018-11-21T01:53:43.657Z,84.20
2018-11-21T01:54:48.297Z,84.22
2018-11-21T01:55:52.867Z,84.17
2018-11-21T01:56:57.437Z,84.22
2018-11-21T01:58:01.976Z,84.20
2018-11-21T01:59:08.109Z,84.20
2018-11-21T02:00:13.345Z,84.27
2018-11-21T02:01:17.611Z,84.37
2018-11-21T02:02:22.223Z,84.37
2018-11-21T02:03:26.574Z,84.32
2018-11-21T02:04:31.081Z,84.29
2018-11-21T02:05:35.400Z,84.28
2018-11-21T02:06:39.784Z,84.29
2018-11-21T02:07:52.967Z,84.32
2018-11-21T02:08:57.645Z,84.35
2018-11-21T02:10:01.891Z,84.40
2018-11-21T02:11:07.115Z,84.44
2018-11-21T02:12:11.630Z,84.44
2018-11-21T02:13:15.921Z,84.47
2018-11-21T02:14:21.984Z,84.43
2018-11-21T02:15:26.520Z,84.52
2018-11-21T02:16:31.135Z,84.55
2018-11-21T02:17:35.854Z,84.59
2018-11-21T02:18:40.860Z,84.61
2018-11-21T02:19:45.262Z,84.61
2018-11-21T02:20:49.893Z,84.59
2018-11-21T02:21:54.176Z,84.60
2018-11-21T02:22:58.311Z,84.57
2018-11-21T02:24:02.801Z,84.58
2018-11-21T02:25:07.503Z,84.59
2018-11-21T02:26:11.814Z,84.58
2018-11-21T02:27:16.128Z,84.67
2018-11-21T02:28:21.160Z,84.63
2018-11-21T02:29:26.329Z,84.67
2018-11-21T02:30:30.863Z,84.67
2018-11-21T02:31:35.725Z,84.74
2018-11-21T02:32:40.814Z,84.80
2018-11-21T02:33:45.647Z,84.91
2018-11-21T02:34:50.583Z,84.97
2018-11-21T02:35:54.884Z,84.98
2018-11-21T02:36:59.308Z,84.99
2018-11-21T02:38:03.808Z,85.00
2018-11-21T02:39:09.009Z,85.03
2018-11-21T02:40:13.272Z,85.01
2018-11-21T02:41:17.494Z,85.09
2018-11-21T02:42:22.333Z,85.10
2018-11-21T02:43:27.084Z,85.10
2018-11-21T02:44:31.442Z,85.14
2018-11-21T02:45:36.136Z,85.17
2018-11-21T02:46:41.136Z,85.16
2018-11-21T02:47:45.237Z,85.21
2018-11-21T02:48:50.243Z,85.28
2018-11-21T02:49:54.709Z,85.24
2018-11-21T02:50:59.330Z,85.27
2018-11-21T02:52:03.499Z,85.28
2018-11-21T02:53:07.720Z,85.24
2018-11-21T02:54:11.833Z,85.28
2018-11-21T02:55:16.032Z,85.26
2018-11-21T02:56:21.032Z,85.25
2018-11-21T02:57:27.791Z,85.32
2018-11-21T02:58:31.973Z,85.34
2018-11-21T02:59:36.591Z,85.35
2018-11-21T03:00:41.090Z,85.34
2018-11-21T03:01:45.726Z,85.36
2018-11-21T03:02:50.692Z,85.38
2018-11-21T03:03:54.824Z,85.40
2018-11-21T03:04:59.282Z,85.40
2018-11-21T03:06:03.376Z,85.46
2018-11-21T03:07:07.626Z,85.52
2018-11-21T03:08:11.797Z,85.53
2018-11-21T03:09:16.326Z,85.52
2018-11-21T03:10:21.441Z,85.55
2018-11-21T03:11:26.221Z,85.58
2018-11-21T03:12:32.846Z,85.63
2018-11-21T03:13:37.145Z,85.67
2018-11-21T03:14:41.268Z,85.71
2018-11-21T03:15:47.552Z,85.74
2018-11-21T03:16:52.002Z,85.77
2018-11-21T03:17:56.180Z,85.81
2018-11-21T03:19:00.392Z,85.87
2018-11-21T03:20:04.781Z,85.90
2018-11-21T03:21:08.928Z,85.90
2018-11-21T03:22:13.533Z,85.96
2018-11-21T03:23:18.074Z,85.92
2018-11-21T03:24:22.603Z,85.85
2018-11-21T03:25:26.711Z,85.96
2018-11-21T03:26:31.365Z,86.03
2018-11-21T03:27:35.947Z,86.09
2018-11-21T03:28:40.460Z,86.07
2018-11-21T03:29:44.998Z,86.10
2018-11-21T03:30:49.550Z,86.15
2018-11-21T03:31:54.089Z,86.15
2018-11-21T03:32:58.623Z,86.15
2018-11-21T03:34:02.839Z,86.27
2018-11-21T03:35:07.510Z,86.22
2018-11-21T03:36:11.812Z,86.30
2018-11-21T03:37:15.938Z,86.29
2018-11-21T03:38:20.099Z,86.29
2018-11-21T03:39:25.528Z,86.33
2018-11-21T03:40:29.674Z,86.32
2018-11-21T03:41:33.767Z,86.33
2018-11-21T03:42:38.034Z,86.39
2018-11-21T03:43:42.546Z,86.50
2018-11-21T03:44:46.766Z,86.55
2018-11-21T03:45:51.018Z,86.70
2018-11-21T03:46:55.613Z,86.79
2018-11-21T03:47:59.821Z,86.80
2018-11-21T03:49:06.080Z,86.75
2018-11-21T03:50:11.498Z,86.87
2018-11-21T03:51:16.062Z,86.92
2018-11-21T03:52:21.047Z,86.90
2018-11-21T03:53:25.191Z,87.05
2018-11-21T03:54:29.781Z,87.06
2018-11-21T03:55:34.213Z,87.04
2018-11-21T03:56:38.807Z,87.05
2018-11-21T03:57:43.400Z,87.18
2018-11-21T03:58:47.987Z,87.27
2018-11-21T03:59:52.977Z,87.34
2018-11-21T04:00:57.195Z,87.40
2018-11-21T04:02:01.568Z,87.34
2018-11-21T04:03:06.183Z,87.46
2018-11-21T04:04:10.588Z,87.40
2018-11-21T04:05:15.431Z,87.45
2018-11-21T04:06:19.594Z,87.49
2018-11-21T04:07:24.232Z,87.46
2018-11-21T04:08:28.434Z,87.38
2018-11-21T04:09:32.640Z,87.38
2018-11-21T04:10:37.763Z,87.46
2018-11-21T04:11:42.346Z,87.47
2018-11-21T04:12:46.833Z,87.38
2018-11-21T04:13:50.948Z,87.41
2018-11-21T04:14:56.221Z,87.46
2018-11-21T04:16:00.367Z,87.55
2018-11-21T04:17:04.570Z,87.53
2018-11-21T04:18:09.139Z,87.55
2018-11-21T04:19:13.306Z,87.64
2018-11-21T04:20:17.424Z,87.60
2018-11-21T04:21:21.788Z,87.68
2018-11-21T04:22:26.134Z,87.64
2018-11-21T04:23:30.608Z,87.70
2018-11-21T04:24:35.766Z,87.75
2018-11-21T04:25:42.951Z,87.68
2018-11-21T04:26:47.567Z,87.61
2018-11-21T04:27:52.378Z,87.65
2018-11-21T04:28:56.467Z,87.62
2018-11-21T04:30:00.891Z,87.69
2018-11-21T04:31:05.128Z,87.72
2018-11-21T04:32:09.278Z,87.75
2018-11-21T04:33:14.111Z,87.78
2018-11-21T04:34:18.478Z,87.85
2018-11-21T04:35:22.706Z,87.86
2018-11-21T04:36:27.774Z,87.91
2018-11-21T04:37:32.395Z,87.90
2018-11-21T04:38:36.909Z,87.83
2018-11-21T04:39:41.125Z,87.94
2018-11-21T04:40:47.708Z,87.87
2018-11-21T04:41:52.329Z,87.88
2018-11-21T04:42:56.483Z,87.90
2018-11-21T04:44:00.754Z,87.85
2018-11-21T04:45:06.528Z,87.81
2018-11-21T04:46:11.082Z,87.91
2018-11-21T04:47:16.029Z,87.89
2018-11-21T04:48:20.778Z,87.95
2018-11-21T04:49:24.947Z,87.95
2018-11-21T04:50:29.168Z,87.92
2018-11-21T04:51:33.267Z,88.01
2018-11-21T04:52:37.377Z,88.01
2018-11-21T04:53:44.067Z,88.10
2018-11-21T04:54:48.569Z,88.17
2018-11-21T04:55:52.918Z,88.29
2018-11-21T04:56:57.123Z,88.23
2018-11-21T04:58:01.269Z,88.21
2018-11-21T04:59:05.501Z,88.26
2018-11-21T05:00:10.851Z,88.28
2018-11-21T05:01:15.114Z,88.30
2018-11-21T05:02:19.394Z,88.42
2018-11-21T05:03:23.759Z,88.32
2018-11-21T05:04:27.885Z,88.32
2018-11-21T05:05:33.027Z,88.31
2018-11-21T05:06:37.777Z,88.32
2018-11-21T05:07:43.124Z,88.32
2018-11-21T05:08:47.679Z,88.34
2018-11-21T05:09:51.918Z,88.31
2018-11-21T05:10:56.311Z,88.33
2018-11-21T05:12:00.581Z,88.35
2018-11-21T05:13:05.385Z,88.44
2018-11-21T05:14:09.596Z,88.49
2018-11-21T05:15:14.052Z,88.52
2018-11-21T05:16:18.374Z,88.48
2018-11-21T05:17:22.592Z,88.49
2018-11-21T05:18:27.258Z,88.52
2018-11-21T05:19:31.841Z,88.60
2018-11-21T05:20:35.959Z,88.75
2018-11-21T05:21:43.014Z,88.66
2018-11-21T05:22:47.176Z,88.58
2018-11-21T05:23:52.180Z,88.60
2018-11-21T05:24:56.281Z,88.57
2018-11-21T05:26:00.742Z,88.65
2018-11-21T05:27:04.835Z,88.76
2018-11-21T05:28:11.158Z,88.76
2018-11-21T05:29:19.930Z,88.73
2018-11-21T05:30:24.032Z,88.70
2018-11-21T05:31:28.500Z,88.75
2018-11-21T05:32:33.007Z,88.78
2018-11-21T05:33:37.591Z,88.75
2018-11-21T05:34:42.013Z,88.84
2018-11-21T05:35:49.241Z,88.80
2018-11-21T05:36:53.816Z,88.84
2018-11-21T05:37:58.001Z,88.93
2018-11-21T05:39:02.129Z,88.91
2018-11-21T05:40:09.750Z,88.92
2018-11-21T05:41:13.815Z,88.97
2018-11-21T05:42:18.000Z,89.00
2018-11-21T05:43:22.631Z,89.00
2018-11-21T05:44:31.397Z,89.00
2018-11-21T05:45:33.504Z,89.04
2018-11-21T05:46:41.339Z,89.13
2018-11-21T05:47:44.094Z,89.07
2018-11-21T05:48:48.345Z,89.08
2018-11-21T05:49:52.536Z,89.10
2018-11-21T05:50:57.492Z,89.10
2018-11-21T05:52:01.626Z,89.04
2018-11-21T05:53:05.729Z,89.01
2018-11-21T05:54:09.983Z,88.97
2018-11-21T05:55:14.199Z,88.94
2018-11-21T05:56:21.255Z,89.00
2018-11-21T05:57:25.773Z,89.07
2018-11-21T05:58:30.239Z,89.13
2018-11-21T05:59:34.861Z,89.21
2018-11-21T06:00:42.086Z,89.26
2018-11-21T06:01:46.189Z,89.28
2018-11-21T06:02:50.275Z,89.36
2018-11-21T06:03:57.404Z,89.51
2018-11-21T06:05:04.142Z,89.55
2018-11-21T06:06:10.075Z,89.61
2018-11-21T06:07:14.556Z,89.61
2018-11-21T06:08:19.206Z,89.59
2018-11-21T06:09:23.334Z,89.57
2018-11-21T06:10:28.419Z,89.63
2018-11-21T06:11:32.617Z,89.69
2018-11-21T06:12:37.150Z,89.77
2018-11-21T06:13:41.350Z,89.80
2018-11-21T06:14:47.337Z,89.92
2018-11-21T06:15:52.029Z,89.95
2018-11-21T06:16:56.910Z,89.94
2018-11-21T06:18:01.292Z,90.01
2018-11-21T06:19:06.179Z,90.04
2018-11-21T06:20:11.553Z,90.16
2018-11-21T06:21:15.813Z,90.22
2018-11-21T06:22:23.211Z,90.23
2018-11-21T06:23:27.711Z,90.29
2018-11-21T06:24:34.997Z,90.31
2018-11-21T06:25:39.453Z,90.17
2018-11-21T06:26:43.781Z,90.20
2018-11-21T06:27:47.861Z,90.19
2018-11-21T06:28:51.989Z,90.16
2018-11-21T06:29:56.697Z,90.12
2018-11-21T06:44:15.218Z,90.46
2018-11-21T06:45:23.636Z,90.43
2018-11-21T06:46:27.796Z,90.44
2018-11-21T06:47:33.758Z,90.49
2018-11-21T06:48:40.363Z,90.52
2018-11-21T06:49:45.081Z,90.56
2018-11-21T06:50:50.538Z,90.63
2018-11-21T06:51:55.085Z,90.60
2018-11-21T06:52:59.964Z,90.52
2018-11-21T06:54:05.649Z,90.51
2018-11-21T06:55:09.775Z,90.47
2018-11-21T06:56:15.178Z,90.40
2018-11-21T06:57:19.356Z,90.38
2018-11-21T06:58:23.481Z,90.33
2018-11-21T06:59:33.018Z,90.34
2018-11-21T07:00:35.990Z,90.36
2018-11-21T07:01:40.120Z,90.28
2018-11-21T07:02:44.259Z,90.24
2018-11-21T07:03:48.403Z,90.23
2018-11-21T07:04:53.104Z,90.19
2018-11-21T07:05:57.223Z,90.14
2018-11-21T07:07:01.341Z,90.13
2018-11-21T07:08:06.436Z,90.15
2018-11-21T07:09:11.031Z,90.10
2018-11-21T07:10:16.085Z,90.10
2018-11-21T07:11:20.225Z,90.16
2018-11-21T07:12:24.389Z,90.09
2018-11-21T07:13:29.315Z,90.09
2018-11-21T07:14:33.919Z,90.08
2018-11-21T07:15:39.576Z,90.04
2018-11-21T07:16:42.700Z,90.06
2018-11-21T07:17:47.337Z,90.02
2018-11-21T07:18:53.402Z,90.03
2018-11-21T07:20:00.508Z,90.01
2018-11-21T07:21:05.383Z,89.99
2018-11-21T07:22:10.176Z,89.99
2018-11-21T07:23:14.852Z,90.02
2018-11-21T07:24:19.184Z,90.02
2018-11-21T07:25:24.379Z,90.05
2018-11-21T07:26:28.681Z,90.06
2018-11-21T07:27:33.261Z,90.08
2018-11-21T07:28:37.354Z,90.08
2018-11-21T07:29:46.744Z,90.11
2018-11-21T07:30:51.330Z,90.13
2018-11-21T07:31:58.304Z,90.12
2018-11-21T07:33:02.535Z,90.14
2018-11-21T07:34:07.161Z,90.15
2018-11-21T07:35:14.642Z,90.15
2018-11-21T07:36:15.982Z,90.08
2018-11-21T07:37:21.491Z,90.10
2018-11-21T07:38:25.795Z,90.05
2018-11-21T07:39:30.013Z,90.00
2018-11-21T07:40:34.653Z,89.98
2018-11-21T07:41:40.819Z,89.99
2018-11-21T07:42:43.994Z,90.01
2018-11-21T07:43:48.449Z,89.99
2018-11-21T07:44:52.804Z,89.97
2018-11-21T07:45:59.458Z,89.95
2018-11-21T07:47:04.635Z,89.92
2018-11-21T07:48:10.247Z,89.91
2018-11-21T07:49:15.425Z,89.90
2018-11-21T07:50:21.193Z,89.90
2018-11-21T07:51:25.912Z,89.76
2018-11-21T07:52:31.367Z,89.50
2018-11-21T07:53:36.322Z,89.43
2018-11-21T07:54:41.044Z,89.44
2018-11-21T07:55:45.358Z,89.43
2018-11-21T07:57:08.644Z,89.42
2018-11-21T07:58:21.022Z,89.34
2018-11-21T07:59:25.191Z,89.23
2018-11-21T08:00:41.143Z,89.08
2018-11-21T08:01:53.972Z,88.99
2018-11-21T08:02:58.582Z,89.00
2018-11-21T08:04:06.623Z,88.97
2018-11-21T08:05:23.812Z,88.96
2018-11-21T08:06:43.140Z,88.93
2018-11-21T08:08:05.429Z,88.88
2018-11-21T08:09:40.436Z,88.92
2018-11-21T08:11:18.416Z,88.94
2018-11-21T08:12:45.515Z,88.87
2018-11-21T08:14:14.486Z,88.89
2018-11-21T08:15:49.535Z,88.84
2018-11-21T08:17:17.789Z,88.76
2018-11-21T08:18:44.206Z,88.71
2018-11-21T08:20:06.171Z,88.79
2018-11-21T08:21:34.994Z,88.78
2018-11-21T08:22:59.733Z,88.74
2018-11-21T08:24:14.840Z,88.64
2018-11-21T08:25:36.090Z,88.64
2018-11-21T08:27:10.881Z,88.67
2018-11-21T08:28:29.287Z,88.64
2018-11-21T08:29:34.092Z,88.67
2018-11-21T08:30:41.884Z,88.82
2018-11-21T08:31:47.055Z,88.91
2018-11-21T08:32:51.220Z,88.85
2018-11-21T08:33:55.410Z,88.86
2018-11-21T08:35:03.701Z,88.86
2018-11-21T08:36:08.390Z,88.90
2018-11-21T08:37:11.823Z,88.93
2018-11-21T08:38:16.851Z,88.98
2018-11-21T08:39:21.329Z,89.02
2018-11-21T08:40:26.082Z,89.11
2018-11-21T08:41:30.517Z,89.17
2018-11-21T08:42:37.984Z,89.26
2018-11-21T08:43:42.160Z,89.25
2018-11-21T08:44:46.457Z,89.24
2018-11-21T08:45:51.022Z,89.27
2018-11-21T08:46:56.216Z,89.24
2018-11-21T08:48:00.369Z,89.24
2018-11-21T08:49:05.429Z,89.16
2018-11-21T08:50:12.860Z,89.09
2018-11-21T08:51:20.022Z,89.04
2018-11-21T08:52:24.214Z,88.99
2018-11-21T08:53:28.385Z,88.98
2018-11-21T08:54:32.599Z,88.97
2018-11-21T08:55:37.548Z,88.93
2018-11-21T08:56:41.803Z,88.89
2018-11-21T08:57:46.018Z,88.85
2018-11-21T08:58:50.471Z,88.90
2018-11-21T08:59:55.097Z,88.93
2018-11-21T09:00:59.308Z,88.94
2018-11-21T09:02:03.917Z,88.87
2018-11-21T09:03:10.931Z,88.80
2018-11-21T09:04:15.121Z,88.71
2018-11-21T09:05:19.538Z,88.73
2018-11-21T09:06:23.694Z,88.73
2018-11-21T09:07:28.341Z,88.74
2018-11-21T09:08:34.538Z,88.73
2018-11-21T09:09:40.713Z,88.75
2018-11-21T09:10:45.909Z,88.72
2018-11-21T09:11:53.278Z,88.72
2018-11-21T09:12:59.558Z,88.68
2018-11-21T09:14:03.695Z,88.74
2018-11-21T09:15:09.106Z,88.76
2018-11-21T09:16:14.195Z,88.75
2018-11-21T09:17:18.427Z,88.72
2018-11-21T09:18:24.729Z,88.75
2018-11-21T09:19:31.732Z,88.73
2018-11-21T09:20:55.001Z,88.69
2018-11-21T09:21:59.563Z,88.73
2018-11-21T09:23:12.265Z,88.70
2018-11-21T09:24:16.526Z,88.69
2018-11-21T09:25:20.653Z,88.62
2018-11-21T09:26:25.221Z,88.63
2018-11-21T09:27:31.941Z,88.59
2018-11-21T09:28:39.285Z,88.56
2018-11-21T09:29:51.632Z,88.54
2018-11-21T09:30:56.938Z,88.56
2018-11-21T09:32:03.876Z,88.46
2018-11-21T09:33:09.440Z,88.49
2018-11-21T09:34:16.040Z,88.44
2018-11-21T09:35:20.699Z,88.45
2018-11-21T09:36:28.106Z,88.54
2018-11-21T09:37:32.940Z,88.60
2018-11-21T09:38:41.808Z,88.72
2018-11-21T09:40:00.822Z,88.75
2018-11-21T09:41:05.375Z,88.80
2018-11-21T09:42:17.420Z,88.83
2018-11-21T09:43:22.211Z,88.86
2018-11-21T09:44:27.113Z,88.84
2018-11-21T09:45:31.755Z,88.86
2018-11-21T09:46:42.217Z,88.87
2018-11-21T09:47:53.993Z,88.77
2018-11-21T09:48:58.471Z,88.75
2018-11-21T09:50:03.148Z,88.74
2018-11-21T09:51:07.228Z,88.69
2018-11-21T09:52:12.093Z,88.68
2018-11-21T09:53:16.312Z,88.65
2018-11-21T09:54:20.457Z,88.64
2018-11-21T09:55:24.730Z,88.62
2018-11-21T09:56:28.874Z,88.58
2018-11-21T09:57:35.925Z,88.58
2018-11-21T09:58:40.062Z,88.52
2018-11-21T09:59:46.247Z,88.54
2018-11-21T10:01:06.296Z,88.54
2018-11-21T10:02:30.827Z,88.60
2018-11-21T10:03:37.181Z,88.65
2018-11-21T10:04:41.453Z,88.67
2018-11-21T10:05:48.500Z,88.58
2018-11-21T10:06:55.504Z,88.53
2018-11-21T10:08:04.052Z,88.48
2018-11-21T10:09:28.015Z,88.52
2018-11-21T10:10:32.950Z,88.58
2018-11-21T10:11:38.538Z,88.47
2018-11-21T10:12:42.999Z,88.49
2018-11-21T10:13:47.655Z,88.52
2018-11-21T10:14:51.800Z,88.50
2018-11-21T10:15:56.624Z,88.54
2018-11-21T10:17:01.497Z,88.54
2018-11-21T10:18:06.454Z,88.62
2018-11-21T10:19:10.576Z,88.61
2018-11-21T10:20:14.663Z,88.57
2018-11-21T10:21:20.273Z,88.58
2018-11-21T10:22:27.631Z,88.55
2018-11-21T10:23:31.911Z,88.55
2018-11-21T10:24:36.032Z,88.59
2018-11-21T10:25:40.521Z,88.67
2018-11-21T10:26:48.439Z,88.72
2018-11-21T10:27:54.150Z,88.70
2018-11-21T10:28:57.352Z,88.72
2018-11-21T10:30:01.647Z,88.80
2018-11-21T10:31:06.819Z,88.82
2018-11-21T10:32:11.044Z,88.89
2018-11-21T10:33:15.384Z,88.84
2018-11-21T10:34:22.748Z,88.85
2018-11-21T10:35:30.261Z,88.92
2018-11-21T10:36:34.371Z,88.97
2018-11-21T10:37:38.654Z,88.93
2018-11-21T10:38:42.774Z,88.86
2018-11-21T10:39:47.832Z,88.80
2018-11-21T10:40:52.331Z,88.81
2018-11-21T10:41:56.434Z,88.85
2018-11-21T10:43:00.621Z,88.93
2018-11-21T10:44:06.480Z,88.90
2018-11-21T10:45:10.881Z,88.84
2018-11-21T10:46:15.573Z,88.83
2018-11-21T10:47:19.974Z,88.82
2018-11-21T10:48:24.662Z,88.71
2018-11-21T10:49:30.572Z,88.61
2018-11-21T10:50:33.080Z,88.54
2018-11-21T10:51:37.758Z,88.52
2018-11-21T10:52:42.293Z,88.59
2018-11-21T10:53:46.832Z,88.73
2018-11-21T10:54:57.737Z,88.73
2018-11-21T10:56:07.263Z,88.71
2018-11-21T10:57:12.455Z,88.77
2018-11-21T10:58:18.933Z,88.74
2018-11-21T10:59:23.937Z,88.71
2018-11-21T11:00:46.223Z,88.65
2018-11-21T11:02:07.848Z,88.62
2018-11-21T11:03:19.202Z,88.62
2018-11-21T11:04:48.749Z,88.62
2018-11-21T11:06:11.380Z,88.63
2018-11-21T11:07:39.449Z,88.62
2018-11-21T11:09:01.190Z,88.56
2018-11-21T11:10:24.862Z,88.47
2018-11-21T11:11:46.096Z,88.43
2018-11-21T11:13:18.193Z,88.29
2018-11-21T11:14:50.503Z,88.16
2018-11-21T11:16:12.297Z,88.18
2018-11-21T11:17:41.629Z,88.16
2018-11-21T11:19:13.450Z,88.20
2018-11-21T11:20:39.340Z,88.14
2018-11-21T11:22:14.418Z,88.15
2018-11-21T11:23:40.909Z,88.19
2018-11-21T11:25:05.152Z,88.19
2018-11-21T11:26:29.860Z,88.23
2018-11-21T11:28:14.617Z,88.25
2018-11-21T11:29:34.945Z,88.17
